Time;durP1;ratioP1;P1;durP2;ratioP2;P2;SDS_P1;SDS_P2;PMS_P1;PMS_P2;Temp;Humidity;BMP_temperature;BMP_pressure;BME280_temperature;BME280_humidity;BME280_pressure;Samples;Min_cycle;Max_cycle;Signal;HPM_P1;HPM_P2
2022/08/31 00:04:11;;;;;;;1999.90;999.90;;;19.20;1.00;;;;;;5035545;28;20551;-64
2022/08/31 00:06:38;;;;;;;1999.90;999.90;;;19.20;1.00;;;;;;5035588;28;20227;-64
2022/08/31 00:09:07;;;;;;;1999.90;999.90;;;19.20;1.00;;;;;;5035393;28;20583;-65
2022/08/31 00:11:34;;;;;;;1999.90;999.90;;;19.10;1.00;;;;;;5035624;28;20207;-65
2022/08/31 00:14:06;;;;;;;1999.90;999.90;;;19.10;1.00;;;;;;5035207;28;20695;-65
2022/08/31 00:16:36;;;;;;;1999.90;999.90;;;19.00;1.00;;;;;;5035455;28;20168;-65
2022/08/31 00:19:04;;;;;;;1999.90;999.90;;;19.00;1.00;;;;;;5035148;28;20613;-65
2022/08/31 00:21:31;;;;;;;1999.90;999.90;;;19.00;1.00;;;;;;5035343;28;20274;-65
2022/08/31 00:23:58;;;;;;;1999.90;999.90;;;18.90;1.00;;;;;;5034947;28;20204;-65
2022/08/31 00:26:26;;;;;;;1999.90;999.90;;;18.90;1.00;;;;;;5035194;28;20201;-65
2022/08/31 00:28:53;;;;;;;1999.90;999.90;;;18.90;1.40;;;;;;5035348;28;20200;-65
2022/08/31 00:31:21;;;;;;;1999.90;999.90;;;18.90;4.60;;;;;;5035172;28;20201;-64
2022/08/31 00:33:51;;;;;;;1999.90;999.90;;;18.90;6.30;;;;;;5034832;28;20673;-65
2022/08/31 00:36:20;;;;;;;1999.90;999.90;;;18.80;11.80;;;;;;5034812;28;20200;-65
2022/08/31 00:38:48;;;;;;;1999.90;999.90;;;18.80;16.40;;;;;;5035080;28;20538;-66
2022/08/31 00:41:17;;;;;;;1999.90;999.90;;;18.70;22.00;;;;;;5035025;28;20211;-65
2022/08/31 00:43:47;;;;;;;1999.90;999.90;;;18.60;27.30;;;;;;5034589;28;20200;-65
2022/08/31 00:46:17;;;;;;;1999.90;999.90;;;18.60;39.50;;;;;;5035044;28;20200;-65
2022/08/31 00:48:50;;;;;;;1999.90;999.90;;;18.50;46.80;;;;;;5035124;28;20220;-65
2022/08/31 00:51:17;;;;;;;1999.90;999.90;;;18.50;56.50;;;;;;5034698;28;20202;-66
2022/08/31 00:53:46;;;;;;;1999.90;999.90;;;18.50;66.00;;;;;;5034789;28;20210;-66
2022/08/31 00:56:14;;;;;;;1999.90;999.90;;;18.50;78.70;;;;;;5034521;28;20201;-66
2022/08/31 00:58:42;;;;;;;1999.90;999.90;;;18.50;90.30;;;;;;5034486;28;20182;-65
2022/08/31 01:01:09;;;;;;;1999.90;999.90;;;18.50;96.40;;;;;;5034620;28;20204;-65
2022/08/31 01:03:36;;;;;;;1999.90;999.90;;;18.50;99.90;;;;;;5034236;28;20734;-64
2022/08/31 01:06:05;;;;;;;1999.90;999.90;;;18.60;99.90;;;;;;5034549;28;20203;-67
2022/08/31 01:08:32;;;;;;;1999.90;999.90;;;18.60;99.90;;;;;;5034148;28;20226;-65
2022/08/31 01:11:00;;;;;;;1999.90;999.90;;;18.50;99.90;;;;;;5034168;28;20204;-65
2022/08/31 01:13:29;;;;;;;1999.90;999.90;;;18.60;99.90;;;;;;5034157;28;20245;-66
2022/08/31 01:16:01;;;;;;;1999.90;999.90;;;18.60;99.90;;;;;;5033872;28;20696;-65
2022/08/31 01:18:30;;;;;;;1999.90;999.90;;;18.60;99.90;;;;;;5034057;28;20177;-65
2022/08/31 01:21:03;;;;;;;1999.90;999.90;;;18.50;99.90;;;;;;5034298;28;20576;-65
2022/08/31 01:23:35;;;;;;;1999.90;999.90;;;18.50;99.90;;;;;;5034283;28;20181;-65
2022/08/31 01:26:03;;;;;;;1999.90;999.90;;;18.50;99.90;;;;;;5033878;28;20650;-65
2022/08/31 01:28:30;;;;;;;1999.90;999.90;;;18.50;99.90;;;;;;5034022;28;20212;-65
2022/08/31 01:31:00;;;;;;;1999.90;999.90;;;18.60;99.90;;;;;;5033784;28;20661;-66
2022/08/31 01:33:27;;;;;;;1999.90;999.90;;;18.50;99.90;;;;;;5034086;28;20207;-65
2022/08/31 01:35:56;;;;;;;1999.90;999.90;;;18.60;99.90;;;;;;5034072;28;20203;-66
2022/08/31 01:38:23;;;;;;;1999.90;999.90;;;18.60;99.90;;;;;;5033639;28;20188;-66
2022/08/31 01:40:54;;;;;;;1999.90;999.90;;;18.60;99.90;;;;;;5033610;28;20211;-66
2022/08/31 01:43:21;;;;;;;1999.90;999.90;;;18.60;99.90;;;;;;5033876;28;20187;-66
2022/08/31 01:45:49;;;;;;;1999.90;999.90;;;18.60;99.90;;;;;;5033701;28;20196;-66
2022/08/31 01:48:17;;;;;;;1999.90;999.90;;;18.60;99.90;;;;;;5033755;28;20212;-66
2022/08/31 01:50:44;;;;;;;1999.90;999.90;;;18.50;99.90;;;;;;5033657;28;20212;-66
2022/08/31 01:53:11;;;;;;;1999.90;999.90;;;18.60;99.90;;;;;;5033412;28;20222;-66
2022/08/31 01:55:38;;;;;;;1999.90;999.90;;;18.60;99.90;;;;;;5027394;28;20200;-67
2022/08/31 01:58:07;;;;;;;1999.90;999.90;;;18.60;99.90;;;;;;5019250;28;20223;-65
2022/08/31 02:00:35;;;;;;;1999.90;999.90;;;18.50;99.90;;;;;;5013784;28;20586;-65
2022/08/31 02:03:03;;;;;;;1999.90;999.90;;;18.50;99.90;;;;;;5013732;28;20197;-64
2022/08/31 02:05:31;;;;;;;1999.90;999.90;;;18.50;99.90;;;;;;5013691;28;20204;-65
2022/08/31 02:07:58;;;;;;;1999.90;999.90;;;18.50;99.90;;;;;;5013266;28;20681;-66
2022/08/31 02:10:25;;;;;;;1999.90;999.90;;;18.40;99.90;;;;;;5013659;28;20222;-66
2022/08/31 02:12:52;;;;;;;1999.90;999.90;;;18.40;99.90;;;;;;5013345;28;20201;-65
2022/08/31 02:15:21;;;;;;;1999.90;999.90;;;18.30;99.90;;;;;;5013101;28;20209;-66
2022/08/31 02:17:48;;;;;;;1999.90;999.90;;;18.30;99.90;;;;;;5013266;28;20197;-66
2022/08/31 02:20:16;;;;;;;1999.90;999.90;;;18.30;99.90;;;;;;5013140;28;20200;-65
2022/08/31 02:22:43;;;;;;;1999.90;999.90;;;18.30;99.90;;;;;;5012638;28;20199;-65
2022/08/31 02:25:11;;;;;;;1999.90;999.90;;;18.20;99.90;;;;;;5013143;28;20207;-66
2022/08/31 02:27:38;;;;;;;1999.90;999.90;;;18.20;99.90;;;;;;5013002;28;20220;-65
2022/08/31 02:30:07;;;;;;;1999.90;999.90;;;18.20;99.90;;;;;;5013015;28;20197;-65
2022/08/31 02:32:36;;;;;;;1999.90;999.90;;;18.20;99.90;;;;;;5013272;28;20203;-65
2022/08/31 02:35:04;;;;;;;1999.90;999.90;;;18.20;99.90;;;;;;5013006;28;20223;-66
2022/08/31 02:37:31;;;;;;;1999.90;999.90;;;18.20;99.90;;;;;;5013051;28;20196;-66
2022/08/31 02:39:58;;;;;;;1999.90;999.90;;;18.20;99.90;;;;;;5012601;28;20673;-66
2022/08/31 02:42:26;;;;;;;1999.90;999.90;;;18.20;99.90;;;;;;5013020;28;20197;-66
2022/08/31 02:44:53;;;;;;;1999.90;999.90;;;18.20;99.90;;;;;;5012683;28;20696;-66
2022/08/31 02:47:20;;;;;;;1999.90;999.90;;;18.20;99.90;;;;;;5012684;28;20672;-65
2022/08/31 02:49:48;;;;;;;1999.90;999.90;;;18.20;99.90;;;;;;5013014;28;20189;-66
2022/08/31 02:52:15;;;;;;;1999.90;999.90;;;18.20;99.90;;;;;;5012686;28;20207;-66
2022/08/31 02:54:42;;;;;;;1999.90;999.90;;;18.20;99.90;;;;;;5012906;28;20211;-66
2022/08/31 02:57:09;;;;;;;1999.90;999.90;;;18.20;99.90;;;;;;5012684;28;20232;-66
2022/08/31 02:59:37;;;;;;;1999.90;999.90;;;18.20;99.90;;;;;;5012897;28;20192;-65
2022/08/31 03:02:04;;;;;;;1999.90;999.90;;;18.20;99.90;;;;;;5012849;28;20200;-64
2022/08/31 03:04:31;;;;;;;1999.90;999.90;;;18.20;99.90;;;;;;5012855;28;20206;-65
2022/08/31 03:06:59;;;;;;;1999.90;999.90;;;18.20;99.90;;;;;;5012819;28;20200;-65
2022/08/31 03:09:26;;;;;;;1999.90;999.90;;;18.20;99.90;;;;;;5012684;28;20270;-66
2022/08/31 03:11:54;;;;;;;1999.90;999.90;;;18.10;99.90;;;;;;5012427;28;20667;-65
2022/08/31 03:14:20;;;;;;;1999.90;999.90;;;18.10;99.90;;;;;;5012569;28;20206;-65
2022/08/31 03:16:48;;;;;;;1999.90;999.90;;;18.10;99.90;;;;;;5012732;28;20203;-65
2022/08/31 03:19:15;;;;;;;1999.90;999.90;;;18.10;99.90;;;;;;5012698;28;20207;-65
2022/08/31 03:21:42;;;;;;;1999.90;999.90;;;18.10;99.90;;;;;;5012682;28;20199;-65
2022/08/31 03:24:10;;;;;;;1999.90;999.90;;;18.10;99.90;;;;;;5012302;28;20200;-65
2022/08/31 03:26:37;;;;;;;1999.90;999.90;;;18.00;99.90;;;;;;5012581;28;20198;-66
2022/08/31 03:29:04;;;;;;;1999.90;999.90;;;18.00;99.90;;;;;;5012626;28;20216;-66
2022/08/31 03:31:32;;;;;;;1999.90;999.90;;;17.90;99.90;;;;;;5012636;28;20204;-65
2022/08/31 03:33:59;;;;;;;1999.90;999.90;;;17.90;99.90;;;;;;5014713;28;20202;-66
2022/08/31 03:36:26;;;;;;;1999.90;999.90;;;17.80;99.90;;;;;;5016542;28;20200;-66
2022/08/31 03:38:53;;;;;;;1999.90;999.90;;;17.80;99.90;;;;;;5016490;28;20223;-66
2022/08/31 03:41:25;;;;;;;1999.90;999.90;;;17.80;99.90;;;;;;5016462;28;20217;-66
2022/08/31 03:43:52;;;;;;;1999.90;999.90;;;17.80;99.90;;;;;;5016329;28;20192;-66
2022/08/31 03:46:19;;;;;;;1999.90;999.90;;;17.70;99.90;;;;;;5016343;28;20218;-65
2022/08/31 03:48:46;;;;;;;1999.90;999.90;;;17.70;99.90;;;;;;5015927;28;20219;-67
2022/08/31 03:51:14;;;;;;;1999.90;999.90;;;17.70;99.90;;;;;;5016207;28;20205;-66
2022/08/31 03:53:42;;;;;;;1999.90;999.90;;;17.70;99.90;;;;;;5016145;28;20207;-66
2022/08/31 03:56:09;;;;;;;1999.90;999.90;;;17.70;99.90;;;;;;5016080;28;20202;-66
2022/08/31 03:58:38;;;;;;;1999.90;999.90;;;17.60;99.90;;;;;;5016146;28;20214;-65
2022/08/31 04:01:05;;;;;;;1999.90;999.90;;;17.60;99.90;;;;;;5016042;28;20211;-63
2022/08/31 04:03:32;;;;;;;1999.90;999.90;;;17.60;99.90;;;;;;5015667;28;20558;-62
2022/08/31 04:05:59;;;;;;;1999.90;999.90;;;17.60;99.90;;;;;;5015691;28;20212;-62
2022/08/31 04:08:27;;;;;;;1999.90;999.90;;;17.60;99.90;;;;;;5015807;28;20217;-64
2022/08/31 04:10:54;;;;;;;1999.90;999.90;;;17.60;99.90;;;;;;5015593;28;20215;-63
2022/08/31 04:13:22;;;;;;;1999.90;999.90;;;17.60;99.90;;;;;;5015380;28;20196;-63
2022/08/31 04:15:50;;;;;;;1999.90;999.90;;;17.60;99.90;;;;;;5015751;28;20210;-63
2022/08/31 04:18:19;;;;;;;1999.90;999.90;;;17.60;99.90;;;;;;5015627;28;20192;-63
2022/08/31 04:20:46;;;;;;;1999.90;999.90;;;17.60;99.90;;;;;;5015730;28;20215;-64
2022/08/31 04:23:13;;;;;;;1999.90;999.90;;;17.60;99.90;;;;;;5015614;28;20208;-63
2022/08/31 04:25:41;;;;;;;1999.90;999.90;;;17.50;99.90;;;;;;5015559;28;20207;-65
2022/08/31 04:28:09;;;;;;;1999.90;999.90;;;17.50;99.90;;;;;;5015480;28;20212;-64
2022/08/31 04:30:39;;;;;;;1999.90;999.90;;;17.50;99.90;;;;;;5015571;28;20215;-63
2022/08/31 04:33:08;;;;;;;1999.90;999.90;;;17.50;99.90;;;;;;5015594;28;20208;-64
2022/08/31 04:35:35;;;;;;;1999.90;999.90;;;17.50;99.90;;;;;;5015098;28;20606;-63
2022/08/31 04:38:02;;;;;;;1999.90;999.90;;;17.40;99.90;;;;;;5015416;28;20205;-64
2022/08/31 04:40:29;;;;;;;1999.90;999.90;;;17.40;99.90;;;;;;5015011;28;20204;-64
2022/08/31 04:42:58;;;;;;;1999.90;999.90;;;17.40;99.90;;;;;;5015092;28;20572;-63
2022/08/31 04:45:25;;;;;;;1999.90;999.90;;;17.40;99.90;;;;;;5014438;28;20252;-64
2022/08/31 04:47:52;;;;;;;1999.90;999.90;;;17.30;99.90;;;;;;5015216;28;20200;-63
2022/08/31 04:50:21;;;;;;;1999.90;999.90;;;17.30;99.90;;;;;;5015267;28;20216;-64
2022/08/31 04:52:49;;;;;;;1999.90;999.90;;;17.20;99.90;;;;;;5014834;28;20205;-64
2022/08/31 04:55:17;;;;;;;1999.90;999.90;;;17.20;99.90;;;;;;5014676;28;20212;-64
2022/08/31 04:57:44;;;;;;;1999.90;999.90;;;17.10;99.90;;;;;;5014627;28;20239;-64
2022/08/31 05:00:12;;;;;;;1999.90;999.90;;;17.10;99.90;;;;;;5014684;28;20203;-63
2022/08/31 05:02:39;;;;;;;1999.90;999.90;;;17.00;99.90;;;;;;5015000;28;20198;-63
2022/08/31 05:05:07;;;;;;;1999.90;999.90;;;16.90;99.90;;;;;;5014645;28;20205;-63
2022/08/31 05:07:36;;;;;;;1999.90;999.90;;;16.90;99.90;;;;;;5014822;28;20195;-63
2022/08/31 05:10:04;;;;;;;1999.90;999.90;;;16.80;99.90;;;;;;5014506;28;20219;-63
2022/08/31 05:12:31;;;;;;;1999.90;999.90;;;16.80;99.90;;;;;;5014482;28;20212;-63
2022/08/31 05:14:59;;;;;;;1999.90;999.90;;;16.70;99.90;;;;;;5014632;28;20204;-63
2022/08/31 05:17:26;;;;;;;1999.90;999.90;;;16.60;99.90;;;;;;5014319;28;20217;-63
2022/08/31 05:19:53;;;;;;;1999.90;999.90;;;16.60;99.90;;;;;;5014639;28;20206;-63
2022/08/31 05:22:20;;;;;;;1999.90;999.90;;;16.50;99.90;;;;;;5014608;28;20210;-63
2022/08/31 05:24:49;;;;;;;1999.90;999.90;;;16.50;99.90;;;;;;5014532;28;20209;-63
2022/08/31 05:27:16;;;;;;;1999.90;999.90;;;16.50;99.90;;;;;;5014206;28;20754;-63
2022/08/31 05:29:43;;;;;;;1999.90;999.90;;;16.50;99.90;;;;;;5014163;28;20211;-63
2022/08/31 05:32:10;;;;;;;1999.90;999.90;;;16.50;99.90;;;;;;5014176;28;20206;-63
2022/08/31 05:34:37;;;;;;;1999.90;999.90;;;16.50;99.90;;;;;;5014217;28;20196;-63
2022/08/31 05:37:05;;;;;;;1999.90;999.90;;;16.50;99.90;;;;;;5014180;28;20199;-63
2022/08/31 05:39:32;;;;;;;1999.90;999.90;;;16.40;99.90;;;;;;5013935;28;20565;-63
2022/08/31 05:42:00;;;;;;;1999.90;999.90;;;16.50;99.90;;;;;;5014119;28;20676;-63
2022/08/31 05:44:27;;;;;;;1999.90;999.90;;;16.50;99.90;;;;;;5014432;28;20194;-63
2022/08/31 05:46:55;;;;;;;1999.90;999.90;;;16.50;99.90;;;;;;5014275;28;20202;-64
2022/08/31 05:49:22;;;;;;;1999.90;999.90;;;16.50;99.90;;;;;;5014612;28;20213;-65
2022/08/31 05:51:49;;;;;;;1999.90;999.90;;;16.60;99.90;;;;;;5014254;28;20209;-64
2022/08/31 05:54:16;;;;;;;1999.90;999.90;;;16.60;99.90;;;;;;5013859;28;20703;-65
2022/08/31 05:56:44;;;;;;;1999.90;999.90;;;16.60;99.90;;;;;;5012795;28;20241;-63
2022/08/31 05:59:13;;;;;;;1999.90;999.90;;;16.70;99.90;;;;;;5013711;28;20186;-64
2022/08/31 06:01:41;;;;;;;1999.90;999.90;;;16.80;99.90;;;;;;5013969;28;20198;-64
2022/08/31 06:04:09;;;;;;;1999.90;999.90;;;16.80;99.90;;;;;;5013861;28;20208;-63
2022/08/31 06:06:37;;;;;;;1999.90;999.90;;;16.90;99.90;;;;;;5013511;28;20199;-63
2022/08/31 06:09:05;;;;;;;1999.90;999.90;;;16.90;99.90;;;;;;5013744;28;20289;-65
2022/08/31 06:11:33;;;;;;;1999.90;999.90;;;17.00;99.90;;;;;;5013826;28;20204;-65
2022/08/31 06:14:02;;;;;;;1999.90;999.90;;;17.30;99.90;;;;;;5013610;28;20202;-64
2022/08/31 06:16:31;;;;;;;1999.90;999.90;;;17.50;99.90;;;;;;5013538;28;20198;-64
2022/08/31 06:19:02;;;;;;;1999.90;999.90;;;17.90;99.90;;;;;;5013632;28;20230;-64
2022/08/31 06:21:32;;;;;;;1999.90;999.90;;;18.40;99.90;;;;;;5013254;28;20188;-65
2022/08/31 06:24:02;;;;;;;1999.90;999.90;;;18.50;99.90;;;;;;5013458;28;20189;-63
2022/08/31 06:26:31;;;;;;;1999.90;999.90;;;18.30;99.90;;;;;;5013108;28;20569;-64
2022/08/31 06:29:00;;;;;;;1999.90;999.90;;;18.40;99.90;;;;;;5012999;28;20215;-64
2022/08/31 06:31:32;;;;;;;1999.90;999.90;;;18.50;99.90;;;;;;5013296;28;20262;-65
2022/08/31 06:34:00;;;;;;;1999.90;999.90;;;18.40;99.90;;;;;;5013415;28;20184;-63
2022/08/31 06:36:30;;;;;;;1999.90;999.90;;;18.20;99.90;;;;;;5013279;28;20204;-64
2022/08/31 06:38:59;;;;;;;1999.90;999.90;;;18.30;99.90;;;;;;5013226;28;20211;-66
2022/08/31 06:41:28;;;;;;;1999.90;999.90;;;18.40;99.90;;;;;;5013120;28;20207;-64
2022/08/31 06:43:55;;;;;;;1999.90;999.90;;;18.60;99.90;;;;;;5012777;28;20204;-64
2022/08/31 06:46:23;;;;;;;1999.90;999.90;;;19.00;99.90;;;;;;5012543;28;20205;-64
2022/08/31 06:48:53;;;;;;;1999.90;999.90;;;19.10;99.90;;;;;;5012439;28;20221;-64
2022/08/31 06:51:21;;;;;;;1999.90;999.90;;;19.30;99.90;;;;;;5013039;28;20189;-64
2022/08/31 06:53:48;;;;;;;1999.90;999.90;;;19.40;99.90;;;;;;5012509;28;20197;-65
2022/08/31 06:56:17;;;;;;;1999.90;999.90;;;19.30;99.90;;;;;;5012997;28;20198;-65
2022/08/31 06:58:44;;;;;;;1999.90;999.90;;;19.20;99.90;;;;;;5012513;28;20228;-64
2022/08/31 07:01:14;;;;;;;1999.90;999.90;;;18.90;99.90;;;;;;5012939;28;20197;-64
2022/08/31 07:03:42;;;;;;;1999.90;999.90;;;18.70;99.90;;;;;;5012912;28;20579;-63
2022/08/31 07:06:13;;;;;;;1999.90;999.90;;;18.50;99.90;;;;;;5012822;28;20215;-64
2022/08/31 07:08:41;;;;;;;1999.90;999.90;;;18.60;99.90;;;;;;5012496;28;20185;-64
2022/08/31 07:11:12;;;;;;;1999.90;999.90;;;18.50;99.90;;;;;;5012804;28;20199;-64
2022/08/31 07:13:40;;;;;;;1999.90;999.90;;;18.50;99.90;;;;;;5012743;28;20173;-64
2022/08/31 07:16:09;;;;;;;1999.90;999.90;;;18.50;99.90;;;;;;5012394;28;20200;-64
2022/08/31 07:18:37;;;;;;;1999.90;999.90;;;18.60;99.90;;;;;;5012745;28;20207;-64
2022/08/31 07:21:12;;;;;;;1999.90;999.90;;;18.50;99.90;;;;;;5012365;28;20209;-64
2022/08/31 07:23:40;;;;;;;1999.90;999.90;;;18.60;99.90;;;;;;5012765;28;20202;-64
2022/08/31 07:26:08;;;;;;;1999.90;999.90;;;18.60;99.90;;;;;;5012667;28;20203;-64
2022/08/31 07:28:37;;;;;;;1999.90;999.90;;;18.70;99.90;;;;;;5012645;28;20208;-64
2022/08/31 07:31:05;;;;;;;1999.90;999.90;;;18.90;99.90;;;;;;5012204;28;20213;-64
2022/08/31 07:33:37;;;;;;;1999.90;999.90;;;18.90;99.90;;;;;;5012596;28;20292;-63
2022/08/31 07:36:09;;;;;;;1999.90;999.90;;;19.20;99.90;;;;;;5012311;28;20177;-65
2022/08/31 07:44:11;;;;;;;1999.90;999.90;;;20.00;99.90;;;;;;5012193;28;20177;-66
2022/08/31 07:46:38;;;;;;;1999.90;999.90;;;19.90;99.90;;;;;;5012510;28;20210;-64
2022/08/31 07:49:12;;;;;;;1999.90;999.90;;;19.90;99.90;;;;;;5012205;28;20206;-64
2022/08/31 07:51:44;;;;;;;1999.90;999.90;;;19.80;99.90;;;;;;5012458;28;20185;-64
2022/08/31 07:54:14;;;;;;;1999.90;999.90;;;20.10;99.90;;;;;;5012376;28;20193;-64
2022/08/31 07:56:42;;;;;;;1999.90;999.90;;;20.00;99.90;;;;;;5011770;28;20255;-65
2022/08/31 07:59:11;;;;;;;1999.90;999.90;;;20.00;99.90;;;;;;5012225;28;20193;-64
2022/08/31 08:01:40;;;;;;;1999.90;999.90;;;20.00;99.90;;;;;;5012134;28;20207;-64
2022/08/31 08:04:07;;;;;;;1999.90;999.90;;;19.90;99.90;;;;;;5011767;28;20575;-63
2022/08/31 08:06:34;;;;;;;1999.90;999.90;;;20.00;99.90;;;;;;5012050;28;20208;-64
2022/08/31 08:09:06;;;;;;;1999.90;999.90;;;20.30;98.00;;;;;;5012165;28;20199;-64
2022/08/31 08:11:36;;;;;;;1999.90;999.90;;;20.80;52.00;;;;;;5011809;28;20216;-63
2022/08/31 08:14:05;;;;;;;1999.90;999.90;;;21.00;25.10;;;;;;5012097;28;20192;-64
2022/08/31 08:16:32;;;;;;;1999.90;999.90;;;21.20;15.50;;;;;;5012169;28;20205;-64
2022/08/31 08:18:59;;;;;;;1999.90;999.90;;;21.50;1.00;;;;;;5012192;28;20197;-64
2022/08/31 08:21:27;;;;;;;1999.90;999.90;;;22.20;1.00;;;;;;5014712;28;20555;-63
2022/08/31 08:23:55;;;;;;;1999.90;999.90;;;22.80;1.00;;;;;;5015312;28;20219;-63
2022/08/31 08:26:23;;;;;;;1999.90;999.90;;;23.30;1.00;;;;;;5015597;28;20208;-65
2022/08/31 08:28:51;;;;;;;1999.90;999.90;;;23.90;1.00;;;;;;5015577;28;20193;-65
2022/08/31 08:31:21;;;;;;;1999.90;999.90;;;23.80;1.00;;;;;;5015164;28;20267;-64
2022/08/31 08:33:50;;;;;;;1999.90;999.90;;;23.80;1.00;;;;;;5015523;28;20207;-65
2022/08/31 08:36:18;;;;;;;1999.90;999.90;;;22.70;1.00;;;;;;5015426;28;20193;-64
2022/08/31 08:38:47;;;;;;;1999.90;999.90;;;22.20;1.00;;;;;;5015101;28;20266;-65
2022/08/31 08:41:17;;;;;;;1999.90;999.90;;;22.30;1.00;;;;;;5015082;28;20576;-64
2022/08/31 08:43:47;;;;;;;1999.90;999.90;;;22.40;1.00;;;;;;5015145;28;20190;-62
2022/08/31 08:46:18;;;;;;;1999.90;999.90;;;23.00;1.00;;;;;;5015295;28;20197;-64
2022/08/31 08:48:47;;;;;;;1999.90;999.90;;;23.80;1.00;;;;;;5014977;28;20708;-64
2022/08/31 08:51:18;;;;;;;1999.90;999.90;;;23.60;1.00;;;;;;5015062;28;20223;-65
2022/08/31 08:53:48;;;;;;;1999.90;999.90;;;24.00;1.00;;;;;;5015013;28;20205;-65
2022/08/31 08:56:16;;;;;;;1999.90;999.90;;;23.90;1.00;;;;;;5015067;28;20193;-65
2022/08/31 08:58:44;;;;;;;1999.90;999.90;;;23.30;1.00;;;;;;5014637;28;20243;-65
2022/08/31 09:01:15;;;;;;;1999.90;999.90;;;22.80;1.00;;;;;;5014985;28;20268;-64
2022/08/31 09:03:55;;;;;;;1999.90;999.90;;;22.60;1.00;;;;;;5015004;28;20185;-63
2022/08/31 09:06:34;;;;;;;1999.90;999.90;;;22.40;1.00;;;;;;5014641;28;20191;-63
2022/08/31 09:09:22;;;;;;;1999.90;999.90;;;22.50;1.00;;;;;;5014959;28;20183;-65
2022/08/31 09:12:10;;;;;;;1999.90;999.90;;;22.60;1.00;;;;;;5014501;28;20189;-65
2022/08/31 09:14:50;;;;;;;1999.90;999.90;;;23.20;1.00;;;;;;5014613;28;20185;-64
2022/08/31 09:17:33;;;;;;;1999.90;999.90;;;24.00;1.00;;;;;;5014774;28;20177;-64
2022/08/31 09:20:04;;;;;;;1999.90;999.90;;;24.80;1.00;;;;;;5014423;28;20634;-65
2022/08/31 09:22:33;;;;;;;1999.90;999.90;;;25.20;1.00;;;;;;5014630;28;20186;-65
2022/08/31 09:25:02;;;;;;;1999.90;999.90;;;25.20;1.00;;;;;;5014525;28;20200;-65
2022/08/31 09:27:45;;;;;;;1999.90;999.90;;;25.40;1.00;;;;;;5014183;28;20246;-64
2022/08/31 09:30:17;;;;;;;1999.90;999.90;;;25.70;1.00;;;;;;5014179;28;20227;-64
2022/08/31 09:32:56;;;;;;;1999.90;999.90;;;26.30;1.00;;;;;;5013986;28;20189;-66
2022/08/31 09:35:29;;;;;;;1999.90;999.90;;;26.50;1.00;;;;;;5014098;28;20674;-63
2022/08/31 09:38:01;;;;;;;1999.90;999.90;;;26.70;1.00;;;;;;5014058;28;20189;-63
2022/08/31 09:40:41;;;;;;;1999.90;999.90;;;26.60;1.00;;;;;;5014187;28;20193;-64
2022/08/31 09:43:11;;;;;;;1999.90;999.90;;;27.10;1.00;;;;;;5014079;28;20189;-64
2022/08/31 09:45:51;;;;;;;1999.90;999.90;;;27.40;1.00;;;;;;5013916;28;20665;-64
2022/08/31 09:48:40;;;;;;;1999.90;999.90;;;27.60;1.00;;;;;;5014191;28;20192;-64
2022/08/31 09:51:08;;;;;;;1999.90;999.90;;;27.20;1.00;;;;;;5013757;28;20205;-63
2022/08/31 09:56:26;;;;;;;1999.90;999.90;;;27.30;1.00;;;;;;5013843;28;20185;-64
2022/08/31 09:58:55;;;;;;;1999.90;999.90;;;27.60;1.00;;;;;;5014022;28;20193;-64
2022/08/31 10:01:28;;;;;;;1999.90;999.90;;;28.10;1.00;;;;;;5013549;28;20193;-64
2022/08/31 10:04:15;;;;;;;1999.90;999.90;;;28.10;1.00;;;;;;5013582;28;20651;-63
2022/08/31 10:06:50;;;;;;;1999.90;999.90;;;27.90;1.00;;;;;;5013663;28;20185;-64
2022/08/31 10:09:32;;;;;;;1999.90;999.90;;;28.00;1.00;;;;;;5013047;28;20230;-66
2022/08/31 10:12:04;;;;;;;1999.90;999.90;;;27.90;1.00;;;;;;5013637;28;20201;-65
2022/08/31 10:14:37;;;;;;;1999.90;999.90;;;28.00;1.00;;;;;;5012926;28;20189;-64
2022/08/31 10:17:11;;;;;;;1999.90;999.90;;;28.00;1.00;;;;;;5013347;28;20960;-65
2022/08/31 10:19:55;;;;;;;1999.90;999.90;;;27.60;1.00;;;;;;5013351;28;20647;-64
2022/08/31 10:22:31;;;;;;;1999.90;999.90;;;27.00;1.00;;;;;;5013577;28;20181;-63
2022/08/31 10:25:20;;;;;;;1999.90;999.90;;;26.20;1.00;;;;;;5013177;28;20181;-64
2022/08/31 10:27:52;;;;;;;1999.90;999.90;;;25.80;1.00;;;;;;5013106;28;20186;-64
2022/08/31 10:30:28;;;;;;;1999.90;999.90;;;25.80;1.00;;;;;;5013027;28;20755;-64
2022/08/31 10:33:01;;;;;;;1999.90;999.90;;;26.10;1.00;;;;;;5013034;28;20188;-64
2022/08/31 10:35:36;;;;;;;1999.90;999.90;;;26.20;1.00;;;;;;5013053;28;20554;-64
2022/08/31 10:38:16;;;;;;;1999.90;999.90;;;26.50;1.00;;;;;;5013351;28;20197;-65
2022/08/31 10:40:47;;;;;;;1999.90;999.90;;;26.90;1.00;;;;;;5013303;28;20185;-64
2022/08/31 10:43:20;;;;;;;1999.90;999.90;;;27.10;1.00;;;;;;5012254;28;20191;-64
2022/08/31 10:45:51;;;;;;;1999.90;999.90;;;28.00;1.00;;;;;;5013136;28;20185;-65
2022/08/31 10:48:20;;;;;;;1999.90;999.90;;;28.60;1.00;;;;;;5012544;28;20184;-63
2022/08/31 10:50:54;;;;;;;1999.90;999.90;;;28.30;1.00;;;;;;5012672;28;20559;-64
2022/08/31 10:53:34;;;;;;;1999.90;999.90;;;28.20;1.00;;;;;;5012697;28;20247;-63
2022/08/31 10:56:10;;;;;;;1999.90;999.90;;;28.80;1.00;;;;;;5012660;28;20185;-63
2022/08/31 10:58:58;;;;;;;1999.90;999.90;;;28.80;1.00;;;;;;5011811;28;20268;-64
2022/08/31 11:01:32;;;;;;;1999.90;999.90;;;29.20;1.00;;;;;;5012339;28;20185;-64
2022/08/31 11:04:33;;;;;;;1999.90;999.90;;;29.00;1.00;;;;;;5011986;28;20534;-65
2022/08/31 11:07:11;;;;;;;1999.90;999.90;;;28.80;1.00;;;;;;5012239;28;20206;-64
2022/08/31 11:09:49;;;;;;;1999.90;999.90;;;28.90;1.00;;;;;;5012888;28;20181;-65
2022/08/31 11:12:21;;;;;;;1999.90;999.90;;;29.60;1.00;;;;;;5012422;28;20213;-65
2022/08/31 11:15:12;;;;;;;1999.90;999.90;;;29.50;1.00;;;;;;5012623;28;20192;-64
2022/08/31 11:17:57;;;;;;;1999.90;999.90;;;29.30;1.00;;;;;;5012542;28;20669;-64
2022/08/31 11:20:46;;;;;;;1999.90;999.90;;;29.30;1.00;;;;;;5012536;28;20541;-64
2022/08/31 11:23:29;;;;;;;1999.90;999.90;;;28.80;1.00;;;;;;5012763;28;20234;-64
2022/08/31 11:26:33;;;;;;;1999.90;999.90;;;28.80;1.00;;;;;;5012618;28;20199;-66
2022/08/31 11:29:08;;;;;;;1999.90;999.90;;;28.60;1.00;;;;;;5012580;28;20195;-66
2022/08/31 11:31:37;;;;;;;1999.90;999.90;;;28.40;1.00;;;;;;5012506;28;20197;-65
2022/08/31 11:34:12;;;;;;;1999.90;999.90;;;28.00;1.00;;;;;;5012361;28;20201;-65
2022/08/31 11:36:51;;;;;;;1999.90;999.90;;;27.40;1.00;;;;;;5012597;28;20179;-66
2022/08/31 11:39:35;;;;;;;1999.90;999.90;;;27.40;1.00;;;;;;5012433;28;20537;-66
2022/08/31 11:42:11;;;;;;;1999.90;999.90;;;28.00;1.00;;;;;;5012326;28;20179;-66
2022/08/31 11:45:04;;;;;;;1999.90;999.90;;;27.70;1.00;;;;;;5012079;28;20185;-64
2022/08/31 11:47:37;;;;;;;1999.90;999.90;;;27.30;1.00;;;;;;5011729;28;20181;-63
2022/08/31 11:50:10;;;;;;;1999.90;999.90;;;26.70;1.00;;;;;;5011970;28;20207;-65
2022/08/31 11:52:41;;;;;;;1999.90;999.90;;;26.60;1.00;;;;;;5011824;28;20183;-65
2022/08/31 11:55:25;;;;;;;1999.90;999.90;;;26.60;1.00;;;;;;5012214;28;20189;-67
2022/08/31 11:58:25;;;;;;;1999.90;999.90;;;26.70;1.00;;;;;;5014768;28;20593;-66
2022/08/31 12:01:29;;;;;;;1999.90;999.90;;;26.50;1.00;;;;;;5015299;28;20247;-65
2022/08/31 12:04:02;;;;;;;1999.90;999.90;;;26.60;1.00;;;;;;5015134;28;20185;-64
2022/08/31 12:07:05;;;;;;;1999.90;999.90;;;26.60;1.00;;;;;;5014764;28;20523;-64
2022/08/31 12:10:17;;;;;;;1999.90;999.90;;;26.60;1.00;;;;;;5014879;28;20185;-65
2022/08/31 12:13:21;;;;;;;1999.90;999.90;;;27.20;1.00;;;;;;5014637;28;20704;-66
2022/08/31 12:16:05;;;;;;;1999.90;999.90;;;27.10;1.00;;;;;;4954877;29;20202;-65
2022/08/31 12:19:03;;;;;;;1999.90;999.90;;;27.10;1.00;;;;;;4955027;29;20215;-65
2022/08/31 12:24:36;;;;;;;1999.90;999.90;;;28.60;1.00;;;;;;4916581;29;20210;-65
2022/08/31 12:27:28;;;;;;;1999.90;999.90;;;29.30;1.00;;;;;;4916806;29;20188;-66
2022/08/31 12:30:15;;;;;;;1999.90;999.90;;;29.00;1.00;;;;;;4916740;29;20196;-65
2022/08/31 12:32:44;;;;;;;1999.90;999.90;;;28.60;1.00;;;;;;4916626;29;20739;-65
2022/08/31 12:35:18;;;;;;;1999.90;999.90;;;28.90;1.00;;;;;;4916580;29;20274;-65
2022/08/31 12:37:45;;;;;;;1999.90;999.90;;;29.40;1.00;;;;;;4916466;29;20208;-66